sensor_id;sensor_type;location;lat;lon;timestamp;pressure;altitude;pressure_sealevel;temperature;humidity
51687;BME280;37774;52.192;4.584;2023-03-03T00:00:46;102766.44;;;-0.49;100.00
51687;BME280;37774;52.192;4.584;2023-03-03T00:03:18;102796.16;;;-0.38;100.00
51687;BME280;37774;52.192;4.584;2023-03-03T00:05:45;102849.03;;;-0.11;100.00
51687;BME280;37774;52.192;4.584;2023-03-03T00:08:12;102876.25;;;0.00;100.00
51687;BME280;37774;52.192;4.584;2023-03-03T00:10:39;102818.53;;;-0.47;100.00
51687;BME280;37774;52.192;4.584;2023-03-03T00:13:12;102672.09;;;-1.34;100.00
51687;BME280;37774;52.192;4.584;2023-03-03T00:15:40;102500.94;;;-2.24;100.00
51687;BME280;37774;52.192;4.584;2023-03-03T00:18:20;102606.69;;;-1.45;100.00
51687;BME280;37774;52.192;4.584;2023-03-03T00:20:52;102901.94;;;0.27;100.00
51687;BME280;37774;52.192;4.584;2023-03-03T00:23:25;102779.09;;;-0.51;100.00
51687;BME280;37774;52.192;4.584;2023-03-03T00:25:53;102883.94;;;0.39;100.00
51687;BME280;37774;52.192;4.584;2023-03-03T00:28:26;102582.59;;;-1.49;100.00
51687;BME280;37774;52.192;4.584;2023-03-03T00:30:55;102581.53;;;-1.53;100.00
51687;BME280;37774;52.192;4.584;2023-03-03T00:33:43;102879.63;;;0.38;100.00
51687;BME280;37774;52.192;4.584;2023-03-03T00:36:23;102638.84;;;-1.10;100.00
51687;BME280;37774;52.192;4.584;2023-03-03T00:38:59;102564.66;;;-1.51;100.00
51687;BME280;37774;52.192;4.584;2023-03-03T00:41:38;102875.31;;;0.50;100.00
51687;BME280;37774;52.192;4.584;2023-03-03T00:44:30;102881.53;;;0.54;100.00
51687;BME280;37774;52.192;4.584;2023-03-03T00:47:01;102805.09;;;0.06;100.00
51687;BME280;37774;52.192;4.584;2023-03-03T00:49:38;102873.00;;;0.53;100.00
51687;BME280;37774;52.192;4.584;2023-03-03T00:52:10;102844.56;;;0.23;100.00
51687;BME280;37774;52.192;4.584;2023-03-03T00:54:39;102683.31;;;-0.95;100.00
51687;BME280;37774;52.192;4.584;2023-03-03T00:57:06;102822.78;;;0.03;100.00
51687;BME280;37774;52.192;4.584;2023-03-03T00:59:32;102900.50;;;0.44;100.00
51687;BME280;37774;52.192;4.584;2023-03-03T01:01:59;102901.78;;;0.37;100.00
51687;BME280;37774;52.192;4.584;2023-03-03T01:04:26;102910.59;;;0.29;100.00
51687;BME280;37774;52.192;4.584;2023-03-03T01:06:54;102903.75;;;0.41;100.00
51687;BME280;37774;52.192;4.584;2023-03-03T01:09:21;102914.03;;;0.29;100.00
51687;BME280;37774;52.192;4.584;2023-03-03T01:11:49;102907.81;;;0.26;100.00
51687;BME280;37774;52.192;4.584;2023-03-03T01:14:16;102903.44;;;0.11;100.00
51687;BME280;37774;52.192;4.584;2023-03-03T01:16:44;102904.28;;;0.24;100.00
51687;BME280;37774;52.192;4.584;2023-03-03T01:19:11;102910.53;;;0.16;100.00
51687;BME280;37774;52.192;4.584;2023-03-03T01:21:38;102909.59;;;0.27;100.00
51687;BME280;37774;52.192;4.584;2023-03-03T01:24:06;102905.41;;;0.41;100.00
51687;BME280;37774;52.192;4.584;2023-03-03T01:26:33;102628.75;;;-1.58;100.00
51687;BME280;37774;52.192;4.584;2023-03-03T01:29:00;102923.38;;;0.29;100.00
51687;BME280;37774;52.192;4.584;2023-03-03T01:31:27;102846.22;;;-0.28;100.00
51687;BME280;37774;52.192;4.584;2023-03-03T01:33:53;102979.38;;;0.38;100.00
51687;BME280;37774;52.192;4.584;2023-03-03T01:36:24;102872.69;;;-0.02;100.00
51687;BME280;37774;52.192;4.584;2023-03-03T01:38:51;102948.69;;;0.38;100.00
51687;BME280;37774;52.192;4.584;2023-03-03T01:41:19;102549.44;;;-1.98;100.00
51687;BME280;37774;52.192;4.584;2023-03-03T01:43:48;102949.16;;;0.32;100.00
51687;BME280;37774;52.192;4.584;2023-03-03T01:49:13;102966.28;;;0.33;100.00
51687;BME280;37774;52.192;4.584;2023-03-03T01:51:46;102952.94;;;0.37;100.00
51687;BME280;37774;52.192;4.584;2023-03-03T01:54:18;102943.56;;;0.38;100.00
51687;BME280;37774;52.192;4.584;2023-03-03T01:56:49;102910.94;;;-0.04;100.00
51687;BME280;37774;52.192;4.584;2023-03-03T01:59:19;102897.78;;;0.04;100.00
51687;BME280;37774;52.192;4.584;2023-03-03T02:01:47;102903.44;;;0.11;100.00
51687;BME280;37774;52.192;4.584;2023-03-03T02:04:15;102945.75;;;0.45;100.00
51687;BME280;37774;52.192;4.584;2023-03-03T02:06:45;102944.34;;;0.37;100.00
51687;BME280;37774;52.192;4.584;2023-03-03T02:09:17;102945.47;;;0.40;100.00
51687;BME280;37774;52.192;4.584;2023-03-03T02:11:51;102686.91;;;-1.16;100.00
51687;BME280;37774;52.192;4.584;2023-03-03T02:14:19;102871.56;;;-0.31;100.00
51687;BME280;37774;52.192;4.584;2023-03-03T02:16:46;102711.28;;;-0.96;100.00
51687;BME280;37774;52.192;4.584;2023-03-03T02:19:19;102655.34;;;-1.42;100.00
51687;BME280;37774;52.192;4.584;2023-03-03T02:21:49;102889.13;;;0.02;100.00
51687;BME280;37774;52.192;4.584;2023-03-03T02:24:23;102942.44;;;0.21;100.00
51687;BME280;37774;52.192;4.584;2023-03-03T02:26:53;102875.91;;;-0.05;100.00
51687;BME280;37774;52.192;4.584;2023-03-03T02:29:21;102942.16;;;0.29;100.00
51687;BME280;37774;52.192;4.584;2023-03-03T02:31:47;102635.72;;;-1.67;100.00
51687;BME280;37774;52.192;4.584;2023-03-03T02:34:14;102938.41;;;0.24;100.00
51687;BME280;37774;52.192;4.584;2023-03-03T02:36:42;102597.72;;;-1.76;100.00
51687;BME280;37774;52.192;4.584;2023-03-03T02:39:11;102910.63;;;0.17;100.00
51687;BME280;37774;52.192;4.584;2023-03-03T02:41:43;102751.38;;;-0.70;100.00
51687;BME280;37774;52.192;4.584;2023-03-03T02:44:14;102860.94;;;-0.12;100.00
51687;BME280;37774;52.192;4.584;2023-03-03T02:46:42;102760.81;;;-0.69;100.00
51687;BME280;37774;52.192;4.584;2023-03-03T02:49:13;102839.44;;;-0.27;100.00
51687;BME280;37774;52.192;4.584;2023-03-03T02:51:40;102895.22;;;0.04;100.00
51687;BME280;37774;52.192;4.584;2023-03-03T02:54:08;102890.94;;;-0.09;100.00
51687;BME280;37774;52.192;4.584;2023-03-03T02:56:35;102882.91;;;-0.39;100.00
51687;BME280;37774;52.192;4.584;2023-03-03T02:59:03;102679.06;;;-1.67;100.00
51687;BME280;37774;52.192;4.584;2023-03-03T03:01:31;102545.78;;;-2.61;100.00
51687;BME280;37774;52.192;4.584;2023-03-03T03:04:03;102897.78;;;-0.46;100.00
51687;BME280;37774;52.192;4.584;2023-03-03T03:06:31;102796.63;;;-1.16;100.00
51687;BME280;37774;52.192;4.584;2023-03-03T03:08:58;102616.78;;;-2.07;100.00
51687;BME280;37774;52.192;4.584;2023-03-03T03:11:25;102753.59;;;-1.48;100.00
51687;BME280;37774;52.192;4.584;2023-03-03T03:13:52;102892.47;;;-0.61;100.00
51687;BME280;37774;52.192;4.584;2023-03-03T03:16:19;102906.72;;;-0.52;100.00
51687;BME280;37774;52.192;4.584;2023-03-03T03:18:47;102630.72;;;-2.13;100.00
51687;BME280;37774;52.192;4.584;2023-03-03T03:21:15;102654.78;;;-2.10;100.00
51687;BME280;37774;52.192;4.584;2023-03-03T03:23:42;102713.88;;;-1.80;100.00
51687;BME280;37774;52.192;4.584;2023-03-03T03:26:09;102908.47;;;-0.99;100.00
51687;BME280;37774;52.192;4.584;2023-03-03T03:28:36;102828.09;;;-1.52;100.00
51687;BME280;37774;52.192;4.584;2023-03-03T03:31:04;102604.50;;;-2.70;100.00
51687;BME280;37774;52.192;4.584;2023-03-03T03:33:32;102878.16;;;-0.82;100.00
51687;BME280;37774;52.192;4.584;2023-03-03T03:36:01;102827.22;;;-1.28;100.00
51687;BME280;37774;52.192;4.584;2023-03-03T03:38:28;102723.94;;;-1.93;100.00
51687;BME280;37774;52.192;4.584;2023-03-03T03:40:55;102844.56;;;-1.00;100.00
51687;BME280;37774;52.192;4.584;2023-03-03T03:43:22;102850.34;;;-0.91;100.00
51687;BME280;37774;52.192;4.584;2023-03-03T03:45:50;102905.47;;;-0.81;100.00
51687;BME280;37774;52.192;4.584;2023-03-03T03:48:17;102864.06;;;-1.25;100.00
51687;BME280;37774;52.192;4.584;2023-03-03T03:50:45;102867.44;;;-0.90;100.00
51687;BME280;37774;52.192;4.584;2023-03-03T03:53:13;102860.41;;;-0.93;100.00
51687;BME280;37774;52.192;4.584;2023-03-03T03:55:40;102855.19;;;-0.82;100.00
51687;BME280;37774;52.192;4.584;2023-03-03T03:58:07;102858.88;;;-0.91;100.00
51687;BME280;37774;52.192;4.584;2023-03-03T04:00:34;102860.31;;;-0.82;100.00
51687;BME280;37774;52.192;4.584;2023-03-03T04:03:01;102545.63;;;-2.63;100.00
51687;BME280;37774;52.192;4.584;2023-03-03T04:05:28;102789.97;;;-1.26;100.00
51687;BME280;37774;52.192;4.584;2023-03-03T04:07:55;102839.22;;;-1.15;100.00
51687;BME280;37774;52.192;4.584;2023-03-03T04:10:23;102761.81;;;-1.28;100.00
51687;BME280;37774;52.192;4.584;2023-03-03T04:12:50;102429.97;;;-3.48;100.00
51687;BME280;37774;52.192;4.584;2023-03-03T04:15:17;102636.31;;;-2.07;100.00
51687;BME280;37774;52.192;4.584;2023-03-03T04:17:44;102871.03;;;-0.63;100.00
51687;BME280;37774;52.192;4.584;2023-03-03T04:20:12;102872.97;;;-0.96;100.00
51687;BME280;37774;52.192;4.584;2023-03-03T04:22:39;102808.16;;;-1.22;100.00
51687;BME280;37774;52.192;4.584;2023-03-03T04:25:07;102777.66;;;-1.56;100.00
51687;BME280;37774;52.192;4.584;2023-03-03T04:27:36;102539.91;;;-2.95;100.00
51687;BME280;37774;52.192;4.584;2023-03-03T04:30:04;102868.66;;;-0.85;100.00
51687;BME280;37774;52.192;4.584;2023-03-03T04:32:31;102867.53;;;-0.89;100.00
51687;BME280;37774;52.192;4.584;2023-03-03T04:34:59;102875.16;;;-0.65;100.00
51687;BME280;37774;52.192;4.584;2023-03-03T04:37:27;102499.34;;;-2.93;100.00
51687;BME280;37774;52.192;4.584;2023-03-03T04:39:53;102870.94;;;-0.64;100.00
51687;BME280;37774;52.192;4.584;2023-03-03T04:42:20;102816.56;;;-1.11;100.00
51687;BME280;37774;52.192;4.584;2023-03-03T04:44:49;102777.56;;;-1.45;100.00
51687;BME280;37774;52.192;4.584;2023-03-03T04:47:16;102511.75;;;-2.86;100.00
51687;BME280;37774;52.192;4.584;2023-03-03T04:49:43;102615.56;;;-2.12;100.00
51687;BME280;37774;52.192;4.584;2023-03-03T04:52:10;102852.28;;;-0.51;100.00
51687;BME280;37774;52.192;4.584;2023-03-03T04:54:36;102811.44;;;-0.75;100.00
51687;BME280;37774;52.192;4.584;2023-03-03T04:57:03;102494.66;;;-2.41;100.00
51687;BME280;37774;52.192;4.584;2023-03-03T04:59:30;102644.25;;;-1.43;100.00
51687;BME280;37774;52.192;4.584;2023-03-03T05:01:58;102747.09;;;-0.83;100.00
51687;BME280;37774;52.192;4.584;2023-03-03T05:04:25;102695.00;;;-1.10;100.00
51687;BME280;37774;52.192;4.584;2023-03-03T05:06:52;102536.56;;;-1.88;100.00
51687;BME280;37774;52.192;4.584;2023-03-03T05:09:19;102521.53;;;-2.32;100.00
51687;BME280;37774;52.192;4.584;2023-03-03T05:11:45;102962.44;;;-0.35;100.00
51687;BME280;37774;52.192;4.584;2023-03-03T05:14:12;102955.09;;;-0.30;100.00
51687;BME280;37774;52.192;4.584;2023-03-03T05:16:39;102441.38;;;-3.43;100.00
51687;BME280;37774;52.192;4.584;2023-03-03T05:19:08;102980.22;;;-0.24;100.00
51687;BME280;37774;52.192;4.584;2023-03-03T05:21:34;102754.25;;;-1.50;100.00
51687;BME280;37774;52.192;4.584;2023-03-03T05:24:01;102939.13;;;-0.51;100.00
51687;BME280;37774;52.192;4.584;2023-03-03T05:26:28;103001.56;;;-0.36;100.00
51687;BME280;37774;52.192;4.584;2023-03-03T05:28:55;102982.88;;;-0.47;100.00
51687;BME280;37774;52.192;4.584;2023-03-03T05:31:22;102571.22;;;-2.96;100.00
51687;BME280;37774;52.192;4.584;2023-03-03T05:33:50;102982.00;;;-0.47;100.00
51687;BME280;37774;52.192;4.584;2023-03-03T05:36:19;102403.88;;;-3.80;100.00
51687;BME280;37774;52.192;4.584;2023-03-03T05:38:46;102983.56;;;-0.49;100.00
51687;BME280;37774;52.192;4.584;2023-03-03T05:41:13;102995.78;;;-0.45;100.00
51687;BME280;37774;52.192;4.584;2023-03-03T05:43:40;102637.50;;;-2.60;100.00
51687;BME280;37774;52.192;4.584;2023-03-03T05:46:07;102930.91;;;-0.83;100.00
51687;BME280;37774;52.192;4.584;2023-03-03T05:48:34;103003.41;;;-0.33;100.00
51687;BME280;37774;52.192;4.584;2023-03-03T05:51:01;102971.97;;;-0.68;100.00
51687;BME280;37774;52.192;4.584;2023-03-03T05:53:31;102790.47;;;-1.78;100.00
51687;BME280;37774;52.192;4.584;2023-03-03T05:55:58;102957.88;;;-0.51;100.00
51687;BME280;37774;52.192;4.584;2023-03-03T05:58:25;102960.00;;;-0.45;100.00
51687;BME280;37774;52.192;4.584;2023-03-03T06:00:52;102818.94;;;-1.26;100.00
51687;BME280;37774;52.192;4.584;2023-03-03T06:03:19;102479.88;;;-3.27;100.00
51687;BME280;37774;52.192;4.584;2023-03-03T06:05:46;102967.47;;;-0.48;100.00
51687;BME280;37774;52.192;4.584;2023-03-03T06:08:13;102905.69;;;-0.78;100.00
51687;BME280;37774;52.192;4.584;2023-03-03T06:10:43;102990.53;;;-0.59;100.00
51687;BME280;37774;52.192;4.584;2023-03-03T06:13:10;102495.88;;;-3.84;100.00
51687;BME280;37774;52.192;4.584;2023-03-03T06:15:37;102975.31;;;-0.69;100.00
51687;BME280;37774;52.192;4.584;2023-03-03T06:18:04;102902.69;;;-1.08;100.00
51687;BME280;37774;52.192;4.584;2023-03-03T06:20:31;102970.00;;;-0.84;100.00
51687;BME280;37774;52.192;4.584;2023-03-03T06:22:59;102904.13;;;-1.24;100.00
51687;BME280;37774;52.192;4.584;2023-03-03T06:25:26;102989.06;;;-0.67;100.00
51687;BME280;37774;52.192;4.584;2023-03-03T06:27:55;102878.94;;;-1.31;100.00
51687;BME280;37774;52.192;4.584;2023-03-03T06:30:22;102971.66;;;-0.72;100.00
51687;BME280;37774;52.192;4.584;2023-03-03T06:32:51;102995.22;;;-0.53;100.00
51687;BME280;37774;52.192;4.584;2023-03-03T06:35:18;102656.25;;;-2.47;100.00
51687;BME280;37774;52.192;4.584;2023-03-03T06:37:45;102434.53;;;-3.89;100.00
51687;BME280;37774;52.192;4.584;2023-03-03T06:40:15;103022.44;;;-0.30;100.00
51687;BME280;37774;52.192;4.584;2023-03-03T06:42:42;102990.75;;;-0.20;100.00
51687;BME280;37774;52.192;4.584;2023-03-03T06:45:10;102941.56;;;-0.41;100.00
51687;BME280;37774;52.192;4.584;2023-03-03T06:47:38;103002.53;;;-0.22;100.00
51687;BME280;37774;52.192;4.584;2023-03-03T06:50:05;103000.66;;;-0.24;100.00
51687;BME280;37774;52.192;4.584;2023-03-03T06:52:33;102919.03;;;-0.94;100.00
51687;BME280;37774;52.192;4.584;2023-03-03T06:55:01;103002.75;;;-0.19;100.00
51687;BME280;37774;52.192;4.584;2023-03-03T06:57:35;102931.34;;;-0.65;100.00
51687;BME280;37774;52.192;4.584;2023-03-03T07:00:14;102460.84;;;-2.74;100.00
51687;BME280;37774;52.192;4.584;2023-03-03T07:02:42;103014.41;;;0.02;100.00
51687;BME280;37774;52.192;4.584;2023-03-03T07:05:13;102915.13;;;-0.53;100.00
51687;BME280;37774;52.192;4.584;2023-03-03T07:07:40;103015.31;;;0.02;100.00
51687;BME280;37774;52.192;4.584;2023-03-03T07:10:17;103015.84;;;-0.02;100.00
51687;BME280;37774;52.192;4.584;2023-03-03T07:12:46;102552.31;;;-2.87;100.00
51687;BME280;37774;52.192;4.584;2023-03-03T07:15:17;102970.56;;;-0.28;100.00
51687;BME280;37774;52.192;4.584;2023-03-03T07:17:47;102674.28;;;-2.10;100.00
51687;BME280;37774;52.192;4.584;2023-03-03T07:20:18;102963.44;;;-0.33;100.00
51687;BME280;37774;52.192;4.584;2023-03-03T07:22:45;102842.56;;;-1.16;100.00
51687;BME280;37774;52.192;4.584;2023-03-03T07:25:19;103029.94;;;-0.07;100.00
51687;BME280;37774;52.192;4.584;2023-03-03T07:27:47;103004.41;;;-0.31;100.00
51687;BME280;37774;52.192;4.584;2023-03-03T07:30:24;103029.94;;;-0.07;100.00
51687;BME280;37774;52.192;4.584;2023-03-03T07:32:53;102852.53;;;-1.20;100.00
51687;BME280;37774;52.192;4.584;2023-03-03T07:35:29;103031.97;;;-0.15;100.00
51687;BME280;37774;52.192;4.584;2023-03-03T07:38:00;103044.19;;;-0.11;100.00
51687;BME280;37774;52.192;4.584;2023-03-03T07:40:34;102983.34;;;-0.52;100.00
51687;BME280;37774;52.192;4.584;2023-03-03T07:43:22;102881.38;;;-1.21;100.00
51687;BME280;37774;52.192;4.584;2023-03-03T07:45:58;102819.75;;;-1.73;100.00
51687;BME280;37774;52.192;4.584;2023-03-03T07:48:30;103047.97;;;-0.18;100.00
51687;BME280;37774;52.192;4.584;2023-03-03T07:51:04;103044.63;;;-0.05;100.00
51687;BME280;37774;52.192;4.584;2023-03-03T07:53:37;103073.97;;;0.12;100.00
51687;BME280;37774;52.192;4.584;2023-03-03T07:56:14;102671.81;;;-2.32;100.00
51687;BME280;37774;52.192;4.584;2023-03-03T07:58:42;102989.41;;;-0.15;100.00
51687;BME280;37774;52.192;4.584;2023-03-03T08:01:39;103043.81;;;0.20;100.00
51687;BME280;37774;52.192;4.584;2023-03-03T08:04:19;102938.88;;;-0.31;100.00
51687;BME280;37774;52.192;4.584;2023-03-03T08:06:49;103018.94;;;0.18;100.00
51687;BME280;37774;52.192;4.584;2023-03-03T08:09:37;102952.81;;;-0.02;100.00
51687;BME280;37774;52.192;4.584;2023-03-03T08:12:37;103060.69;;;0.79;100.00
51687;BME280;37774;52.192;4.584;2023-03-03T08:15:23;103051.47;;;0.69;100.00
51687;BME280;37774;52.192;4.584;2023-03-03T08:17:52;103019.88;;;0.32;100.00
51687;BME280;37774;52.192;4.584;2023-03-03T08:20:45;103056.16;;;0.63;100.00
51687;BME280;37774;52.192;4.584;2023-03-03T08:23:13;102919.94;;;-0.09;100.00
51687;BME280;37774;52.192;4.584;2023-03-03T08:25:41;102956.41;;;0.26;100.00
51687;BME280;37774;52.192;4.584;2023-03-03T08:28:08;102935.75;;;0.23;100.00
51687;BME280;37774;52.192;4.584;2023-03-03T08:30:35;103001.59;;;0.51;100.00
51687;BME280;37774;52.192;4.584;2023-03-03T08:33:04;102994.66;;;0.62;100.00
51687;BME280;37774;52.192;4.584;2023-03-03T08:35:31;103069.59;;;0.98;100.00
51687;BME280;37774;52.192;4.584;2023-03-03T08:37:57;102972.22;;;0.57;100.00
51687;BME280;37774;52.192;4.584;2023-03-03T08:40:24;103084.00;;;1.35;100.00
51687;BME280;37774;52.192;4.584;2023-03-03T08:42:51;103081.75;;;1.39;100.00
51687;BME280;37774;52.192;4.584;2023-03-03T08:45:18;103079.72;;;1.74;100.00
51687;BME280;37774;52.192;4.584;2023-03-03T08:47:45;103071.16;;;1.73;100.00
51687;BME280;37774;52.192;4.584;2023-03-03T08:50:14;103089.09;;;2.00;100.00
51687;BME280;37774;52.192;4.584;2023-03-03T08:52:41;102970.69;;;1.25;100.00
51687;BME280;37774;52.192;4.584;2023-03-03T08:55:08;103084.66;;;1.98;100.00
51687;BME280;37774;52.192;4.584;2023-03-03T08:57:35;103073.59;;;1.99;100.00
51687;BME280;37774;52.192;4.584;2023-03-03T09:00:10;103084.72;;;2.26;100.00
51687;BME280;37774;52.192;4.584;2023-03-03T09:02:37;102831.88;;;0.77;100.00
51687;BME280;37774;52.192;4.584;2023-03-03T09:05:05;103093.66;;;2.60;100.00
51687;BME280;37774;52.192;4.584;2023-03-03T09:07:34;103098.75;;;2.73;100.00
51687;BME280;37774;52.192;4.584;2023-03-03T09:10:02;102994.56;;;2.20;100.00
51687;BME280;37774;52.192;4.584;2023-03-03T09:12:31;103102.16;;;2.87;100.00
51687;BME280;37774;52.192;4.584;2023-03-03T09:15:10;103109.19;;;3.05;100.00
51687;BME280;37774;52.192;4.584;2023-03-03T09:17:38;103117.63;;;3.17;100.00
51687;BME280;37774;52.192;4.584;2023-03-03T09:20:20;102988.78;;;2.38;100.00
51687;BME280;37774;52.192;4.584;2023-03-03T09:22:49;102970.91;;;2.11;100.00
51687;BME280;37774;52.192;4.584;2023-03-03T09:25:21;103110.66;;;3.30;100.00
51687;BME280;37774;52.192;4.584;2023-03-03T09:27:51;102854.72;;;1.70;100.00
51687;BME280;37774;52.192;4.584;2023-03-03T09:30:33;103078.63;;;3.10;100.00
51687;BME280;37774;52.192;4.584;2023-03-03T09:33:01;103115.91;;;3.31;100.00
51687;BME280;37774;52.192;4.584;2023-03-03T09:35:42;103064.06;;;2.80;100.00
51687;BME280;37774;52.192;4.584;2023-03-03T09:38:29;102887.53;;;1.89;100.00
51687;BME280;37774;52.192;4.584;2023-03-03T09:41:21;102886.63;;;1.88;100.00
51687;BME280;37774;52.192;4.584;2023-03-03T09:44:12;103129.19;;;3.39;100.00
51687;BME280;37774;52.192;4.584;2023-03-03T09:46:53;103052.56;;;3.03;100.00
51687;BME280;37774;52.192;4.584;2023-03-03T09:49:30;102648.69;;;0.67;100.00
51687;BME280;37774;52.192;4.584;2023-03-03T09:52:18;103101.63;;;3.67;100.00
51687;BME280;37774;52.192;4.584;2023-03-03T09:55:07;103098.78;;;3.77;100.00
51687;BME280;37774;52.192;4.584;2023-03-03T09:57:50;102856.50;;;2.28;100.00
51687;BME280;37774;52.192;4.584;2023-03-03T10:00:31;102994.94;;;3.13;100.00
51687;BME280;37774;52.192;4.584;2023-03-03T10:03:21;103142.06;;;3.69;100.00
51687;BME280;37774;52.192;4.584;2023-03-03T10:05:57;103101.63;;;3.82;100.00
51687;BME280;37774;52.192;4.584;2023-03-03T10:08:40;103100.03;;;3.84;100.00
51687;BME280;37774;52.192;4.584;2023-03-03T10:11:17;102897.03;;;2.63;100.00
51687;BME280;37774;52.192;4.584;2023-03-03T10:13:53;103089.56;;;3.80;100.00
51687;BME280;37774;52.192;4.584;2023-03-03T10:16:45;103079.47;;;3.84;100.00
51687;BME280;37774;52.192;4.584;2023-03-03T10:19:33;103080.50;;;4.02;100.00
51687;BME280;37774;52.192;4.584;2023-03-03T10:22:17;103072.47;;;4.13;100.00
51687;BME280;37774;52.192;4.584;2023-03-03T10:25:00;103078.19;;;4.23;100.00
51687;BME280;37774;52.192;4.584;2023-03-03T10:27:54;103097.63;;;4.18;100.00
51687;BME280;37774;52.192;4.584;2023-03-03T10:30:35;103054.66;;;4.32;100.00
51687;BME280;37774;52.192;4.584;2023-03-03T10:33:12;103057.31;;;4.34;100.00
51687;BME280;37774;52.192;4.584;2023-03-03T10:35:54;102931.25;;;3.86;100.00
51687;BME280;37774;52.192;4.584;2023-03-03T10:38:44;103049.78;;;4.53;100.00
51687;BME280;37774;52.192;4.584;2023-03-03T10:41:33;102801.75;;;3.20;100.00
51687;BME280;37774;52.192;4.584;2023-03-03T10:44:18;103059.50;;;4.92;100.00
51687;BME280;37774;52.192;4.584;2023-03-03T10:47:10;103024.25;;;4.58;100.00
51687;BME280;37774;52.192;4.584;2023-03-03T10:49:51;102891.19;;;4.24;100.00
51687;BME280;37774;52.192;4.584;2023-03-03T10:52:30;102874.31;;;4.13;100.00
51687;BME280;37774;52.192;4.584;2023-03-03T10:55:27;103048.06;;;5.04;100.00
51687;BME280;37774;52.192;4.584;2023-03-03T10:58:24;102986.91;;;4.83;100.00
51687;BME280;37774;52.192;4.584;2023-03-03T11:01:01;102969.19;;;4.89;100.00
51687;BME280;37774;52.192;4.584;2023-03-03T11:03:55;103029.38;;;5.26;100.00
51687;BME280;37774;52.192;4.584;2023-03-03T11:06:32;102940.09;;;4.92;100.00
51687;BME280;37774;52.192;4.584;2023-03-03T11:09:11;103019.41;;;5.50;100.00
51687;BME280;37774;52.192;4.584;2023-03-03T11:11:46;103012.31;;;5.46;100.00
51687;BME280;37774;52.192;4.584;2023-03-03T11:14:20;102999.16;;;5.58;100.00
51687;BME280;37774;52.192;4.584;2023-03-03T11:16:56;102673.13;;;3.85;100.00
51687;BME280;37774;52.192;4.584;2023-03-03T11:19:42;102995.00;;;5.62;100.00
51687;BME280;37774;52.192;4.584;2023-03-03T11:22:21;102939.69;;;5.37;100.00
51687;BME280;37774;52.192;4.584;2023-03-03T11:25:00;102787.13;;;4.53;100.00
51687;BME280;37774;52.192;4.584;2023-03-03T11:27:44;102960.66;;;5.63;100.00
51687;BME280;37774;52.192;4.584;2023-03-03T11:30:26;102915.81;;;5.41;100.00
51687;BME280;37774;52.192;4.584;2023-03-03T11:33:03;102971.50;;;5.74;100.00
51687;BME280;37774;52.192;4.584;2023-03-03T11:35:38;102963.13;;;5.79;100.00
51687;BME280;37774;52.192;4.584;2023-03-03T11:38:20;102645.16;;;4.28;100.00
51687;BME280;37774;52.192;4.584;2023-03-03T11:40:52;102982.69;;;6.30;100.00
51687;BME280;37774;52.192;4.584;2023-03-03T11:43:26;102887.56;;;6.20;100.00
51687;BME280;37774;52.192;4.584;2023-03-03T11:45:58;102926.88;;;6.34;100.00
51687;BME280;37774;52.192;4.584;2023-03-03T11:48:37;102954.88;;;6.85;100.00
51687;BME280;37774;52.192;4.584;2023-03-03T11:51:06;102956.75;;;6.89;100.00
51687;BME280;37774;52.192;4.584;2023-03-03T11:53:49;102954.25;;;6.91;100.00
51687;BME280;37774;52.192;4.584;2023-03-03T11:56:22;102962.75;;;6.67;100.00
51687;BME280;37774;52.192;4.584;2023-03-03T11:58:59;102924.81;;;6.66;100.00
51687;BME280;37774;52.192;4.584;2023-03-03T12:01:33;102905.69;;;6.62;100.00
51687;BME280;37774;52.192;4.584;2023-03-03T12:04:04;102947.69;;;6.78;100.00
51687;BME280;37774;52.192;4.584;2023-03-03T12:06:41;102759.88;;;5.52;100.00
51687;BME280;37774;52.192;4.584;2023-03-03T12:09:28;102942.13;;;6.68;100.00
51687;BME280;37774;52.192;4.584;2023-03-03T12:12:02;102891.88;;;6.40;100.00
51687;BME280;37774;52.192;4.584;2023-03-03T12:17:44;102929.09;;;7.08;100.00
51687;BME280;37774;52.192;4.584;2023-03-03T12:20:22;102917.38;;;7.16;100.00
51687;BME280;37774;52.192;4.584;2023-03-03T12:22:58;102930.78;;;7.28;100.00
51687;BME280;37774;52.192;4.584;2023-03-03T12:25:33;102707.41;;;6.12;100.00
51687;BME280;37774;52.192;4.584;2023-03-03T12:28:07;102902.72;;;7.16;100.00
51687;BME280;37774;52.192;4.584;2023-03-03T12:31:00;102902.25;;;7.27;100.00
51687;BME280;37774;52.192;4.584;2023-03-03T12:33:44;102908.44;;;7.30;100.00
51687;BME280;37774;52.192;4.584;2023-03-03T12:36:35;102914.84;;;7.40;100.00
51687;BME280;37774;52.192;4.584;2023-03-03T12:39:13;102885.41;;;7.37;100.00
51687;BME280;37774;52.192;4.584;2023-03-03T12:41:46;102870.00;;;7.17;100.00
51687;BME280;37774;52.192;4.584;2023-03-03T12:44:21;102892.38;;;7.16;100.00
51687;BME280;37774;52.192;4.584;2023-03-03T12:46:55;102831.97;;;6.70;100.00
51687;BME280;37774;52.192;4.584;2023-03-03T12:49:26;102890.44;;;7.11;100.00
51687;BME280;37774;52.192;4.584;2023-03-03T12:52:08;102502.94;;;4.71;100.00
51687;BME280;37774;52.192;4.584;2023-03-03T12:54:48;102865.78;;;7.19;100.00
51687;BME280;37774;52.192;4.584;2023-03-03T12:57:24;102880.47;;;7.20;100.00
51687;BME280;37774;52.192;4.584;2023-03-03T13:00:10;102860.03;;;7.05;100.00
51687;BME280;37774;52.192;4.584;2023-03-03T13:02:47;102559.34;;;5.25;100.00
51687;BME280;37774;52.192;4.584;2023-03-03T13:05:24;102733.59;;;6.22;100.00
51687;BME280;37774;52.192;4.584;2023-03-03T13:08:04;102877.69;;;7.15;100.00
51687;BME280;37774;52.192;4.584;2023-03-03T13:10:39;102612.19;;;5.56;100.00
51687;BME280;37774;52.192;4.584;2023-03-03T13:13:14;102890.56;;;7.14;100.00
51687;BME280;37774;52.192;4.584;2023-03-03T13:15:49;102887.09;;;7.13;100.00
51687;BME280;37774;52.192;4.584;2023-03-03T13:18:24;102882.13;;;7.41;100.00